Time;durP1;ratioP1;P1;durP2;ratioP2;P2;SDS_P1;SDS_P2;PMS_P1;PMS_P2;Temp;Humidity;BMP_temperature;BMP_pressure;BME280_temperature;BME280_humidity;BME280_pressure;Samples;Min_cycle;Max_cycle;Signal;HPM_P1;HPM_P2
2022/08/16 00:01:30;;;;;;;4.95;4.45;;;;;;;18.59;74.81;95776.89;1718009;82;21332;-82
2022/08/16 00:03:56;;;;;;;6.70;4.80;;;;;;;18.61;75.21;95777.95;1711616;82;21083;-82
2022/08/16 00:06:22;;;;;;;4.45;4.05;;;;;;;18.64;75.40;95781.44;1694342;82;21035;-82
2022/08/16 00:08:49;;;;;;;4.80;4.25;;;;;;;18.67;75.44;95782.77;1697520;82;21037;-82
2022/08/16 00:11:15;;;;;;;6.33;4.40;;;;;;;18.68;75.57;95783.05;1696210;82;21334;-81
2022/08/16 00:13:40;;;;;;;6.03;4.42;;;;;;;18.69;75.55;95788.06;1698839;83;20956;-82
2022/08/16 00:16:06;;;;;;;4.55;4.15;;;;;;;18.66;76.03;95791.19;1715349;82;21015;-82
2022/08/16 00:18:32;;;;;;;6.65;4.80;;;;;;;18.62;76.24;95784.81;1719267;82;21335;-82
2022/08/16 00:20:58;;;;;;;4.87;4.37;;;;;;;18.57;76.25;95796.08;1696314;82;21095;-82
2022/08/16 00:23:24;;;;;;;6.53;4.25;;;;;;;18.50;75.99;95790.19;1702997;83;21033;-82
2022/08/16 00:25:49;;;;;;;4.62;4.05;;;;;;;18.46;76.61;95786.98;1694505;83;21447;-82
2022/08/16 00:28:16;;;;;;;6.10;4.45;;;;;;;18.45;76.82;95783.56;1691789;84;21104;-82
2022/08/16 00:30:42;;;;;;;4.87;4.30;;;;;;;18.44;76.90;95785.13;1701880;84;21015;-82
2022/08/16 00:33:08;;;;;;;5.37;4.53;;;;;;;18.43;76.56;95781.70;1695543;83;21361;-81
2022/08/16 00:35:35;;;;;;;5.33;4.62;;;;;;;18.42;76.56;95785.37;1697618;84;20984;-82
2022/08/16 00:38:02;;;;;;;4.72;4.25;;;;;;;18.41;76.48;95777.73;1693699;84;20936;-82
2022/08/16 00:40:47;;;;;;;5.05;4.22;;;;;;;18.39;76.47;95775.88;1684097;83;20929;-82
2022/08/16 00:43:32;;;;;;;4.80;4.30;;;;;;;18.38;76.37;95771.63;1684495;83;20971;-82
2022/08/16 00:46:15;;;;;;;5.30;4.42;;;;;;;18.40;76.20;95780.09;1666653;85;21000;-82
2022/08/16 00:48:43;;;;;;;6.83;4.90;;;;;;;18.42;76.46;95780.64;1666614;85;20987;-82
2022/08/16 00:51:09;;;;;;;4.78;4.37;;;;;;;18.43;76.47;95783.02;1669354;83;21024;-81
2022/08/16 00:53:34;;;;;;;5.25;4.30;;;;;;;18.44;76.84;95784.61;1666681;85;20984;-82
2022/08/16 00:56:05;;;;;;;4.58;4.17;;;;;;;18.44;77.21;95782.50;1680912;83;21375;-82
2022/08/16 00:58:33;;;;;;;4.62;4.22;;;;;;;18.42;77.44;95782.75;1674042;84;21341;-82
2022/08/16 01:00:59;;;;;;;6.90;4.00;;;;;;;18.40;78.26;95775.62;1698760;83;21012;-82
2022/08/16 01:03:26;;;;;;;4.90;4.40;;;;;;;18.40;78.41;95777.46;1687545;83;21799;-82
2022/08/16 01:05:52;;;;;;;4.55;4.08;;;;;;;18.39;77.92;95777.19;1697018;84;20952;-82
2022/08/16 01:08:20;;;;;;;4.92;4.42;;;;;;;18.38;77.42;95773.73;1699637;84;20932;-82
2022/08/16 01:10:46;;;;;;;5.08;4.47;;;;;;;18.38;77.40;95777.67;1669353;83;21008;-82
2022/08/16 01:13:19;;;;;;;5.20;4.50;;;;;;;18.40;77.28;95787.46;1677469;83;20988;-83
2022/08/16 01:15:50;;;;;;;4.83;4.30;;;;;;;18.43;77.00;95796.17;1668339;83;21332;-82
2022/08/16 01:18:18;;;;;;;5.45;4.45;;;;;;;18.44;77.10;95803.02;1663448;83;21047;-82
2022/08/16 01:21:04;;;;;;;5.17;4.67;;;;;;;18.43;77.06;95801.43;1705050;82;21039;-82
2022/08/16 01:23:54;;;;;;;7.08;4.95;;;;;;;18.42;77.23;95802.47;1689144;82;21427;-82
2022/08/16 01:26:20;;;;;;;5.10;4.42;;;;;;;18.42;77.96;95804.31;1679043;82;20960;-82
2022/08/16 01:28:46;;;;;;;5.33;4.47;;;;;;;18.39;78.39;95812.17;1707382;82;20995;-82
2022/08/16 01:31:11;;;;;;;4.87;4.37;;;;;;;18.37;78.81;95805.02;1700361;82;20936;-82
2022/08/16 01:33:37;;;;;;;5.83;4.53;;;;;;;18.35;78.51;95806.31;1696388;82;21369;-82
2022/08/16 01:36:06;;;;;;;4.85;4.45;;;;;;;18.34;78.10;95812.61;1706530;82;20913;-82
2022/08/16 01:38:39;;;;;;;6.03;4.80;;;;;;;18.35;77.42;95817.63;1719255;83;20987;-82
2022/08/16 01:41:09;;;;;;;4.80;4.40;;;;;;;18.38;77.52;95814.50;1704162;82;20984;-82
2022/08/16 01:43:37;;;;;;;6.28;5.00;;;;;;;18.36;77.48;95809.21;1710663;82;21123;-82
2022/08/16 01:46:07;;;;;;;5.33;4.85;;;;;;;18.34;77.45;95812.09;1690848;83;21038;-82
2022/08/16 01:48:33;;;;;;;6.83;4.80;;;;;;;18.32;77.64;95810.23;1695343;82;21364;-83
2022/08/16 01:51:00;;;;;;;5.42;4.80;;;;;;;18.32;77.57;95810.23;1713552;82;21058;-83
2022/08/16 01:53:26;;;;;;;7.40;5.05;;;;;;;18.33;77.27;95805.76;1714159;83;21018;-82
2022/08/16 01:55:52;;;;;;;5.10;4.60;;;;;;;18.34;77.51;95804.20;1719231;82;20974;-82
2022/08/16 01:58:17;;;;;;;6.20;5.10;;;;;;;18.36;77.73;95803.44;1718355;82;21427;-82
2022/08/16 02:00:44;;;;;;;4.55;4.15;;;;;;;18.37;77.25;95800.28;1714198;81;20962;-82
2022/08/16 02:03:09;;;;;;;5.37;4.87;;;;;;;18.38;77.04;95807.13;1709678;82;21337;-82
2022/08/16 02:05:35;;;;;;;6.17;4.67;;;;;;;18.37;76.80;95804.23;1697690;82;20980;-81
2022/08/16 02:08:03;;;;;;;5.10;4.60;;;;;;;18.38;76.85;95813.70;1712961;82;20992;-82
2022/08/16 02:10:29;;;;;;;6.92;4.83;;;;;;;18.36;77.03;95810.01;1712895;82;21032;-82
2022/08/16 02:12:55;;;;;;;6.00;4.80;;;;;;;18.33;77.40;95809.19;1718066;82;20921;-82
2022/08/16 02:15:24;;;;;;;4.95;4.28;;;;;;;18.31;78.01;95804.69;1697165;82;20997;-82
2022/08/16 02:17:50;;;;;;;5.95;4.53;;;;;;;18.28;78.50;95798.09;1714027;82;20985;-82
2022/08/16 02:20:15;;;;;;;5.87;4.80;;;;;;;18.27;78.56;95803.59;1710575;82;21081;-81
2022/08/16 02:22:42;;;;;;;5.97;4.60;;;;;;;18.24;78.20;95806.20;1709545;82;21486;-82
2022/08/16 02:25:12;;;;;;;6.53;4.70;;;;;;;18.22;77.97;95806.14;1700690;82;21066;-82
2022/08/16 02:27:39;;;;;;;5.40;4.97;;;;;;;18.16;77.79;95797.41;1698048;82;20972;-81
2022/08/16 02:30:07;;;;;;;6.53;4.70;;;;;;;18.14;78.32;95795.54;1702052;82;21040;-81
2022/08/16 02:32:33;;;;;;;5.87;4.33;;;;;;;18.12;78.79;95794.99;1719902;82;21026;-82
2022/08/16 02:34:59;;;;;;;4.47;4.08;;;;;;;18.13;78.63;95790.52;1718266;82;21079;-82
2022/08/16 02:37:24;;;;;;;6.25;4.85;;;;;;;18.13;78.33;95793.16;1715215;82;20928;-82
2022/08/16 02:39:50;;;;;;;5.58;4.50;;;;;;;18.15;78.25;95797.65;1717126;82;21034;-82
2022/08/16 02:42:18;;;;;;;4.72;4.33;;;;;;;18.16;78.10;95795.30;1700062;82;21407;-82
2022/08/16 02:44:43;;;;;;;5.90;4.80;;;;;;;18.16;77.86;95797.92;1702196;82;21005;-82
2022/08/16 02:47:10;;;;;;;5.17;4.67;;;;;;;18.14;77.95;95795.54;1690599;82;20992;-82
2022/08/16 02:49:36;;;;;;;4.53;4.12;;;;;;;18.13;77.99;95799.73;1704373;82;21389;-81
2022/08/16 02:52:02;;;;;;;5.17;4.67;;;;;;;18.13;78.15;95798.41;1723052;82;20942;-82
2022/08/16 02:54:28;;;;;;;5.08;4.50;;;;;;;18.11;78.66;95799.97;1729822;82;21371;-84
2022/08/16 02:56:53;;;;;;;4.37;3.98;;;;;;;18.11;78.61;95801.81;1709618;82;21031;-85
2022/08/16 02:59:19;;;;;;;6.45;4.75;;;;;;;18.09;78.50;95805.20;1690872;83;21078;-84
2022/08/16 03:01:45;;;;;;;5.33;4.30;;;;;;;18.07;78.62;95798.08;1697923;82;21789;-84
2022/08/16 03:04:10;;;;;;;4.62;4.12;;;;;;;18.09;78.65;95803.37;1719070;82;20921;-84
2022/08/16 03:06:36;;;;;;;5.20;4.67;;;;;;;18.10;78.73;95799.70;1720216;82;21051;-83
2022/08/16 03:09:02;;;;;;;4.92;4.37;;;;;;;18.11;78.68;95799.18;1714958;82;21392;-84
2022/08/16 03:11:30;;;;;;;5.75;4.60;;;;;;;18.10;78.87;95795.75;1698972;82;21438;-85
2022/08/16 03:13:56;;;;;;;6.47;4.30;;;;;;;18.09;78.93;95800.73;1714473;81;21025;-85
2022/08/16 03:16:22;;;;;;;6.62;5.15;;;;;;;18.09;79.45;95796.00;1715527;82;20962;-85
2022/08/16 03:18:47;;;;;;;5.15;4.65;;;;;;;18.11;79.66;95800.50;1697361;82;21351;-85
2022/08/16 03:21:13;;;;;;;4.70;4.20;;;;;;;18.10;79.58;95796.27;1685855;83;21002;-84
2022/08/16 03:23:39;;;;;;;5.50;4.50;;;;;;;18.10;79.68;95800.22;1693592;84;20971;-85
2022/08/16 03:26:05;;;;;;;5.25;4.40;;;;;;;18.11;79.75;95796.55;1689095;83;20933;-84
2022/08/16 03:28:31;;;;;;;6.25;4.37;;;;;;;18.11;79.60;95803.92;1687071;83;21338;-84
2022/08/16 03:30:57;;;;;;;5.47;4.95;;;;;;;18.12;79.54;95802.08;1685604;84;21377;-84
2022/08/16 03:33:23;;;;;;;4.97;4.47;;;;;;;18.08;79.63;95797.04;1690639;83;20984;-85
2022/08/16 03:35:48;;;;;;;6.45;4.28;;;;;;;18.08;80.09;95800.47;1689773;83;20979;-84
2022/08/16 03:38:15;;;;;;;5.78;4.92;;;;;;;18.06;80.32;95799.09;1672816;84;20932;-84
2022/08/16 03:40:41;;;;;;;5.25;4.20;;;;;;;18.04;80.34;95804.59;1678814;84;21427;-85
2022/08/16 03:43:10;;;;;;;5.97;5.05;;;;;;;18.02;80.11;95807.98;1681190;83;21020;-84
2022/08/16 03:45:37;;;;;;;5.85;4.37;;;;;;;18.00;80.04;95810.86;1676121;83;21064;-84
2022/08/16 03:48:04;;;;;;;4.85;4.35;;;;;;;18.02;79.92;95813.77;1686108;83;21062;-85
2022/08/16 03:50:30;;;;;;;6.08;4.90;;;;;;;18.03;80.07;95825.34;1686896;83;20949;-84
2022/08/16 03:52:56;;;;;;;5.92;5.00;;;;;;;18.05;80.12;95822.48;1686653;84;21398;-85
2022/08/16 03:55:22;;;;;;;5.78;5.08;;;;;;;18.09;80.24;95820.98;1680241;83;21050;-85
2022/08/16 03:57:48;;;;;;;5.83;4.55;;;;;;;18.11;80.21;95825.47;1675547;85;20993;-85
2022/08/16 04:00:20;;;;;;;5.08;4.65;;;;;;;18.13;80.23;95824.19;1692994;83;20949;-85
2022/08/16 04:02:45;;;;;;;5.92;5.33;;;;;;;18.14;80.06;95827.09;1680188;83;20994;-85
2022/08/16 04:05:13;;;;;;;5.40;4.30;;;;;;;18.11;80.32;95823.64;1675180;84;21000;-84
2022/08/16 04:07:38;;;;;;;5.30;4.80;;;;;;;18.08;80.40;95822.02;1691199;83;21012;-85
2022/08/16 04:10:05;;;;;;;7.00;5.95;;;;;;;18.08;80.60;95825.95;1689668;84;21023;-84
2022/08/16 04:12:32;;;;;;;6.08;4.62;;;;;;;18.08;80.83;95830.70;1656379;84;21656;-85
2022/08/16 04:15:00;;;;;;;5.53;4.97;;;;;;;18.06;80.93;95828.01;1692620;83;20964;-84
2022/08/16 04:17:26;;;;;;;5.12;4.62;;;;;;;18.03;80.92;95831.13;1689918;83;20992;-85
2022/08/16 04:19:52;;;;;;;5.10;4.50;;;;;;;18.00;81.24;95833.20;1676503;84;21056;-85
2022/08/16 04:22:18;;;;;;;6.20;4.03;;;;;;;17.99;81.32;95829.50;1689020;83;21464;-85
2022/08/16 04:24:44;;;;;;;5.05;4.58;;;;;;;17.99;81.47;95829.50;1692492;83;21010;-85
2022/08/16 04:27:10;;;;;;;5.30;4.80;;;;;;;18.00;81.40;95824.52;1695594;83;21061;-84
2022/08/16 04:29:36;;;;;;;5.08;4.25;;;;;;;18.03;81.31;95830.61;1693877;84;21044;-84
2022/08/16 04:32:02;;;;;;;5.70;5.20;;;;;;;18.04;81.56;95832.72;1689622;83;20980;-85
2022/08/16 04:34:30;;;;;;;5.65;5.12;;;;;;;18.04;81.63;95843.23;1688619;84;20948;-83
2022/08/16 04:36:59;;;;;;;6.22;4.60;;;;;;;18.05;81.86;95842.98;1691648;83;20960;-85
2022/08/16 04:39:26;;;;;;;5.47;4.83;;;;;;;18.04;82.00;95841.39;1684333;84;20981;-85
2022/08/16 04:41:51;;;;;;;6.47;4.80;;;;;;;18.03;82.08;95846.37;1670631;83;21081;-84
2022/08/16 04:44:17;;;;;;;5.67;4.85;;;;;;;18.03;82.18;95840.33;1682753;84;21049;-84
2022/08/16 04:46:43;;;;;;;6.12;4.85;;;;;;;18.01;82.39;95848.45;1683682;83;21329;-85
2022/08/16 04:49:10;;;;;;;6.33;4.72;;;;;;;18.01;82.63;95852.40;1691160;84;20981;-84
2022/08/16 04:51:40;;;;;;;5.15;4.58;;;;;;;18.00;82.98;95848.98;1688921;83;21437;-84
2022/08/16 04:54:06;;;;;;;6.78;4.78;;;;;;;18.02;83.35;95843.99;1683462;84;21625;-84
2022/08/16 04:56:31;;;;;;;7.12;5.53;;;;;;;18.03;83.53;95847.69;1686417;83;21036;-84
2022/08/16 04:58:57;;;;;;;5.65;5.08;;;;;;;18.06;83.68;95838.03;1685540;83;20925;-85
2022/08/16 05:01:23;;;;;;;5.22;4.72;;;;;;;18.06;83.68;95838.03;1679663;84;21030;-85
2022/08/16 05:03:49;;;;;;;6.65;5.15;;;;;;;18.13;84.08;95851.00;1678189;83;21041;-84
2022/08/16 05:06:15;;;;;;;6.08;5.03;;;;;;;18.14;84.25;95853.38;1677007;83;21015;-84
2022/08/16 05:08:41;;;;;;;6.05;4.87;;;;;;;18.15;84.54;95853.66;1690963;83;20972;-85
2022/08/16 05:11:08;;;;;;;6.10;5.50;;;;;;;18.18;84.68;95857.63;1680868;84;21323;-85
2022/08/16 05:13:35;;;;;;;5.42;4.92;;;;;;;18.19;84.83;95856.07;1685439;84;21362;-84
2022/08/16 05:16:02;;;;;;;5.22;4.50;;;;;;;18.22;85.08;95857.42;1694197;84;21021;-85
2022/08/16 05:18:27;;;;;;;5.00;4.50;;;;;;;18.23;85.20;95857.20;1693353;83;20952;-85
2022/08/16 05:20:53;;;;;;;5.05;4.65;;;;;;;18.24;85.42;95858.80;1701105;82;21356;-85
2022/08/16 05:23:19;;;;;;;5.58;4.75;;;;;;;18.25;85.53;95861.70;1700031;82;21004;-84
2022/08/16 05:25:46;;;;;;;6.87;5.05;;;;;;;18.28;85.70;95861.73;1713016;82;20998;-85
2022/08/16 05:28:11;;;;;;;5.35;4.85;;;;;;;18.31;85.84;95869.13;1709212;82;20948;-85
2022/08/16 05:30:37;;;;;;;5.85;4.85;;;;;;;18.33;85.99;95866.25;1717939;82;20973;-85
2022/08/16 05:33:04;;;;;;;5.85;4.58;;;;;;;18.34;86.14;95869.16;1710430;82;21018;-85
2022/08/16 05:35:29;;;;;;;6.17;4.97;;;;;;;18.36;86.36;95873.65;1715758;82;21979;-85
2022/08/16 05:37:55;;;;;;;5.47;4.60;;;;;;;18.39;86.58;95871.88;1714999;82;21001;-85
2022/08/16 05:40:21;;;;;;;5.87;5.03;;;;;;;18.39;86.68;95877.14;1696104;82;20960;-85
2022/08/16 05:42:47;;;;;;;5.55;4.85;;;;;;;18.41;86.71;95880.31;1704912;82;21259;-83
2022/08/16 05:45:13;;;;;;;6.42;5.12;;;;;;;18.43;86.82;95883.50;1697450;82;21027;-84
2022/08/16 05:47:39;;;;;;;6.22;5.25;;;;;;;18.43;86.90;95884.81;1710393;82;21050;-84
2022/08/16 05:50:05;;;;;;;5.75;5.25;;;;;;;18.44;86.99;95889.83;1721294;82;21350;-85
2022/08/16 05:52:31;;;;;;;6.03;5.42;;;;;;;18.45;87.19;95892.73;1712516;82;21001;-84
2022/08/16 05:54:57;;;;;;;5.75;5.15;;;;;;;18.46;87.06;95896.95;1716882;82;20982;-84
2022/08/16 05:57:23;;;;;;;5.33;4.83;;;;;;;18.48;86.99;95897.50;1718750;82;21059;-84
2022/08/16 05:59:49;;;;;;;5.40;4.90;;;;;;;18.51;87.16;95893.59;1719386;82;21371;-85
2022/08/16 06:02:15;;;;;;;6.62;5.10;;;;;;;18.54;87.27;95899.15;1712835;82;20973;-84
2022/08/16 06:04:41;;;;;;;5.85;5.25;;;;;;;18.58;87.28;95896.33;1712509;82;20990;-84
2022/08/16 06:07:07;;;;;;;8.63;5.33;;;;;;;18.62;87.36;95890.58;1719565;82;20979;-85
2022/08/16 06:09:33;;;;;;;6.08;4.97;;;;;;;18.66;87.44;95902.23;1716605;82;20925;-84
2022/08/16 06:12:02;;;;;;;5.47;4.78;;;;;;;18.72;87.65;95905.22;1715511;82;20987;-84
2022/08/16 06:14:28;;;;;;;5.58;5.08;;;;;;;18.77;87.56;95906.59;1705906;82;20937;-84
2022/08/16 06:16:54;;;;;;;6.17;5.58;;;;;;;18.82;87.74;95907.44;1714034;82;21365;-85
2022/08/16 06:19:19;;;;;;;7.70;5.25;;;;;;;18.88;88.04;95909.11;1720392;82;20942;-85
2022/08/16 06:21:46;;;;;;;6.87;5.20;;;;;;;18.94;88.41;95909.16;1684368;83;21056;-85
2022/08/16 06:24:12;;;;;;;8.65;6.33;;;;;;;19.01;88.82;95905.80;1715586;82;20950;-84
2022/08/16 06:26:38;;;;;;;6.83;5.15;;;;;;;19.09;88.59;95913.29;1697880;82;21388;-85
2022/08/16 06:29:03;;;;;;;6.15;5.40;;;;;;;19.16;88.31;95915.20;1726850;81;20997;-85
2022/08/16 06:31:29;;;;;;;6.05;5.35;;;;;;;19.22;87.76;95912.91;1713365;81;20937;-85
2022/08/16 06:33:55;;;;;;;7.55;5.65;;;;;;;19.28;87.25;95919.02;1721607;81;20960;-85
2022/08/16 06:36:22;;;;;;;5.70;5.00;;;;;;;19.33;86.86;95921.17;1725178;81;21427;-85
2022/08/16 06:38:51;;;;;;;6.78;5.72;;;;;;;19.38;86.61;95926.52;1726024;81;21005;-84
2022/08/16 06:41:17;;;;;;;6.90;5.45;;;;;;;19.44;86.31;95923.41;1720832;81;21088;-85
2022/08/16 06:43:43;;;;;;;7.25;5.83;;;;;;;19.51;86.06;95926.62;1728289;81;21401;-85
2022/08/16 06:46:28;;;;;;;6.35;5.75;;;;;;;19.58;85.91;95925.16;1716456;81;20986;-85
2022/08/16 06:48:54;;;;;;;5.90;5.40;;;;;;;19.63;85.64;95925.98;1724370;81;20930;-85
2022/08/16 06:51:20;;;;;;;6.37;5.78;;;;;;;19.69;85.41;95925.01;1734135;81;20946;-85
2022/08/16 06:53:45;;;;;;;7.28;5.87;;;;;;;19.73;85.68;95928.73;1724612;81;21425;-85
2022/08/16 06:56:11;;;;;;;6.40;5.80;;;;;;;19.79;85.18;95933.52;1728051;81;20933;-84
2022/08/16 06:58:37;;;;;;;6.47;5.10;;;;;;;19.86;84.91;95944.66;1717992;81;21019;-85
2022/08/16 07:01:02;;;;;;;6.62;5.92;;;;;;;19.94;84.43;95944.72;1711569;81;20905;-86
2022/08/16 07:03:29;;;;;;;6.85;5.60;;;;;;;19.97;84.08;95942.36;1718287;81;21361;-85
2022/08/16 07:05:58;;;;;;;7.87;5.40;;;;;;;20.00;83.83;95937.11;1706156;81;21011;-85
2022/08/16 07:08:24;;;;;;;7.33;6.35;;;;;;;20.02;83.77;95941.11;1719506;82;20936;-85
2022/08/16 07:10:50;;;;;;;6.58;5.97;;;;;;;20.07;83.62;95935.07;1718881;81;21028;-85
2022/08/16 07:13:16;;;;;;;6.12;5.53;;;;;;;20.11;83.50;95934.03;1723216;81;20972;-85
2022/08/16 07:15:42;;;;;;;5.92;5.20;;;;;;;20.15;83.22;95937.23;1707066;82;21337;-85
2022/08/16 07:18:09;;;;;;;5.90;5.35;;;;;;;20.20;83.48;95939.92;1714520;81;21047;-85
2022/08/16 07:20:36;;;;;;;6.75;5.97;;;;;;;20.25;83.44;95935.99;1725262;81;21448;-85
2022/08/16 07:23:05;;;;;;;6.10;5.50;;;;;;;20.31;83.17;95935.50;1714427;82;21020;-85
2022/08/16 07:25:32;;;;;;;7.42;5.60;;;;;;;20.39;83.46;95927.12;1699111;82;21024;-85
2022/08/16 07:27:59;;;;;;;7.12;6.42;;;;;;;20.49;83.86;95931.67;1715168;82;21358;-85
2022/08/16 07:30:25;;;;;;;7.28;6.58;;;;;;;20.57;82.59;95930.69;1724349;82;20986;-85
2022/08/16 07:32:51;;;;;;;7.83;6.42;;;;;;;20.67;82.88;95932.60;1710957;82;21397;-84
2022/08/16 07:35:17;;;;;;;7.12;6.42;;;;;;;20.76;82.76;95936.86;1704501;82;20964;-85
2022/08/16 07:37:43;;;;;;;8.10;6.70;;;;;;;20.86;81.77;95943.52;1717599;82;20951;-85
2022/08/16 07:40:10;;;;;;;7.20;6.50;;;;;;;20.94;80.68;95947.77;1716881;82;20984;-85
2022/08/16 07:42:36;;;;;;;8.33;6.78;;;;;;;21.05;80.24;95957.86;1716430;82;20999;-85
2022/08/16 07:45:04;;;;;;;8.58;7.78;;;;;;;21.16;79.57;95956.86;1718091;82;21004;-85
2022/08/16 07:47:29;;;;;;;8.75;6.72;;;;;;;21.28;79.46;95959.28;1715896;82;20993;-85
2022/08/16 07:49:55;;;;;;;8.58;7.12;;;;;;;21.37;79.69;95960.39;1716092;82;21013;-84
2022/08/16 07:52:21;;;;;;;8.23;6.05;;;;;;;21.42;79.57;95959.08;1715296;82;21085;-85
2022/08/16 07:54:47;;;;;;;7.08;6.42;;;;;;;21.46;80.32;95958.02;1690017;83;20937;-84
2022/08/16 07:57:13;;;;;;;7.12;6.42;;;;;;;21.47;81.05;95961.72;1710671;82;20962;-84
2022/08/16 07:59:38;;;;;;;7.33;6.62;;;;;;;21.57;79.92;95961.75;1702252;82;21335;-84
2022/08/16 08:02:04;;;;;;;9.33;7.42;;;;;;;21.57;79.92;95961.75;1720115;82;20993;-85
2022/08/16 08:04:32;;;;;;;8.73;7.83;;;;;;;21.66;78.54;95964.70;1717043;82;20982;-85
2022/08/16 08:06:58;;;;;;;8.48;7.20;;;;;;;21.74;78.25;95963.38;1710619;82;20999;-84
2022/08/16 08:09:24;;;;;;;7.92;7.12;;;;;;;21.83;77.83;95958.64;1684646;84;21013;-85
2022/08/16 08:11:50;;;;;;;7.35;6.72;;;;;;;21.92;78.36;95968.16;1713194;81;20920;-85
2022/08/16 08:14:16;;;;;;;8.05;6.78;;;;;;;21.98;78.70;95960.51;1705187;83;20983;-84
2022/08/16 08:16:42;;;;;;;8.10;6.87;;;;;;;22.02;78.58;95961.56;1713568;82;20921;-84
2022/08/16 08:19:11;;;;;;;8.35;6.10;;;;;;;22.08;78.86;95951.27;1716311;82;20996;-84
2022/08/16 08:21:36;;;;;;;7.20;6.50;;;;;;;22.18;79.74;95960.27;1714930;81;21082;-85
2022/08/16 08:24:02;;;;;;;7.37;6.67;;;;;;;22.29;79.22;95956.55;1721463;82;21076;-84
2022/08/16 08:26:28;;;;;;;10.55;7.92;;;;;;;22.38;79.25;95958.93;1726245;81;20983;-85
2022/08/16 08:28:54;;;;;;;9.00;8.10;;;;;;;22.48;78.12;95958.14;1727088;82;21000;-85
2022/08/16 08:31:20;;;;;;;8.08;7.22;;;;;;;22.59;76.52;95963.13;1729015;81;21001;-84
2022/08/16 08:33:46;;;;;;;8.43;7.62;;;;;;;22.91;75.21;95967.33;1733865;81;21517;-85
2022/08/16 08:36:14;;;;;;;9.43;7.97;;;;;;;22.91;75.21;95967.33;1727267;81;21018;-86
2022/08/16 08:38:40;;;;;;;8.73;7.17;;;;;;;23.06;75.31;95961.98;1689139;83;21372;-84
2022/08/16 08:41:07;;;;;;;9.53;7.55;;;;;;;23.21;75.77;95968.55;1724286;81;21030;-85
2022/08/16 08:43:34;;;;;;;8.15;7.12;;;;;;;23.32;75.83;95967.45;1698117;83;20995;-85
2022/08/16 08:46:00;;;;;;;8.38;7.58;;;;;;;23.48;75.05;95967.38;1721426;81;21011;-85
2022/08/16 08:48:26;;;;;;;8.50;7.60;;;;;;;23.57;74.26;95970.52;1691813;83;21043;-84
2022/08/16 08:50:51;;;;;;;8.53;7.83;;;;;;;23.68;74.35;95973.12;1652909;84;21075;-85
2022/08/16 08:53:18;;;;;;;8.10;7.40;;;;;;;23.79;73.99;95975.98;1717548;81;21030;-84
2022/08/16 08:55:48;;;;;;;9.50;8.13;;;;;;;23.92;75.31;95973.52;1722280;81;21030;-85
2022/08/16 08:58:12;;;;;;;8.28;7.47;;;;;;;23.98;72.32;95970.28;1725198;81;20961;-84
2022/08/16 09:00:38;;;;;;;8.98;7.25;;;;;;;24.03;71.09;95966.25;1716597;81;20993;-85
2022/08/16 09:03:04;;;;;;;10.32;7.95;;;;;;;24.06;72.08;95959.06;1724579;81;20962;-85
2022/08/16 09:05:29;;;;;;;8.18;6.60;;;;;;;24.14;70.08;95970.96;1721795;81;20956;-84
2022/08/16 09:07:55;;;;;;;9.00;8.10;;;;;;;24.19;72.05;95968.26;1724998;81;20952;-85
2022/08/16 09:10:21;;;;;;;8.63;7.83;;;;;;;24.22;70.71;95976.45;1723755;81;20956;-85
2022/08/16 09:12:47;;;;;;;7.65;6.78;;;;;;;24.32;70.73;95974.83;1726385;81;20937;-84
2022/08/16 09:15:14;;;;;;;8.83;7.95;;;;;;;24.40;70.70;95972.34;1716677;81;21346;-85
2022/08/16 09:17:41;;;;;;;8.65;7.75;;;;;;;24.47;72.05;95970.17;1734640;81;20957;-86
2022/08/16 09:20:09;;;;;;;7.92;7.12;;;;;;;24.43;70.35;95975.80;1711387;81;21017;-84
2022/08/16 09:22:36;;;;;;;8.38;7.58;;;;;;;24.44;70.57;95970.74;1698418;82;21146;-85
2022/08/16 09:25:02;;;;;;;8.23;7.40;;;;;;;24.45;70.57;95976.84;1686131;84;21016;-85
2022/08/16 09:27:28;;;;;;;8.65;7.40;;;;;;;24.49;69.44;95969.36;1692029;84;21011;-85
2022/08/16 09:29:54;;;;;;;10.15;6.97;;;;;;;24.58;68.83;95973.55;1692720;83;20953;-85
2022/08/16 09:32:20;;;;;;;8.15;7.35;;;;;;;24.65;70.78;95967.35;1691768;84;20939;-85
2022/08/16 09:34:46;;;;;;;8.55;7.67;;;;;;;24.71;71.10;95962.23;1691414;83;21519;-85
2022/08/16 09:37:14;;;;;;;8.28;7.47;;;;;;;24.75;69.50;95973.11;1693613;84;21022;-85
2022/08/16 09:39:39;;;;;;;8.75;7.83;;;;;;;24.80;68.81;95971.72;1688922;83;20975;-85
2022/08/16 09:42:05;;;;;;;10.75;7.97;;;;;;;24.84;69.39;95976.19;1687836;83;20979;-85
2022/08/16 09:44:31;;;;;;;9.05;8.28;;;;;;;24.92;69.19;95976.66;1694482;83;21351;-85
2022/08/16 09:46:57;;;;;;;9.35;8.20;;;;;;;24.96;67.05;95980.33;1693519;83;20991;-85
2022/08/16 09:49:23;;;;;;;8.53;7.60;;;;;;;24.99;67.12;95976.56;1687184;83;20995;-84
2022/08/16 09:51:53;;;;;;;8.20;7.33;;;;;;;25.04;67.68;95967.22;1695752;83;20931;-85
2022/08/16 09:54:24;;;;;;;7.87;7.07;;;;;;;25.10;68.67;95966.64;1691323;83;21050;-85
2022/08/16 09:56:50;;;;;;;8.90;8.00;;;;;;;25.10;68.83;95969.30;1688091;83;21450;-85
2022/08/16 09:59:15;;;;;;;8.13;7.35;;;;;;;25.13;68.65;95968.19;1694713;84;21224;-84
2022/08/16 10:01:43;;;;;;;7.67;6.97;;;;;;;25.18;68.20;95967.33;1695538;83;20953;-85
2022/08/16 10:04:10;;;;;;;10.18;8.13;;;;;;;25.19;68.17;95971.57;1695182;84;20968;-85
2022/08/16 10:06:36;;;;;;;8.15;7.15;;;;;;;25.19;68.17;95971.57;1690835;83;21032;-85
2022/08/16 10:09:07;;;;;;;11.05;8.05;;;;;;;25.22;68.98;95970.20;1696554;84;21304;-85
2022/08/16 10:14:18;;;;;;;9.35;7.65;;;;;;;25.29;68.15;95966.68;1676432;85;21012;-85
2022/08/16 10:16:44;;;;;;;7.60;6.80;;;;;;;25.39;68.74;95969.22;1670320;83;21051;-84
2022/08/16 10:19:12;;;;;;;8.48;6.65;;;;;;;25.41;65.76;95963.87;1695446;83;21321;-85
2022/08/16 10:21:38;;;;;;;7.67;6.53;;;;;;;25.42;64.15;95969.98;1670022;83;21023;-85
2022/08/16 10:24:07;;;;;;;7.95;6.97;;;;;;;25.40;64.07;95966.27;1670748;85;20992;-85
2022/08/16 10:26:34;;;;;;;8.10;6.85;;;;;;;25.49;64.57;95977.59;1688466;83;21390;-85
2022/08/16 10:29:02;;;;;;;8.25;7.25;;;;;;;25.53;63.45;95978.59;1694549;83;21004;-85
2022/08/16 10:31:27;;;;;;;6.92;6.28;;;;;;;25.61;63.99;95976.64;1693463;83;21023;-85
2022/08/16 10:33:54;;;;;;;7.45;6.72;;;;;;;25.68;64.28;95977.88;1694730;83;20948;-85
2022/08/16 10:36:20;;;;;;;7.17;6.47;;;;;;;25.71;64.22;95976.00;1658971;85;21024;-86
2022/08/16 10:38:45;;;;;;;7.58;6.87;;;;;;;25.74;63.40;95975.96;1648672;85;21054;-85
2022/08/16 10:41:13;;;;;;;7.30;6.60;;;;;;;25.76;62.84;95975.67;1647867;85;21024;-83
2022/08/16 10:43:40;;;;;;;7.33;6.72;;;;;;;25.78;61.96;95973.52;1653750;86;21474;-83
2022/08/16 10:46:08;;;;;;;7.83;7.03;;;;;;;25.83;62.40;95973.43;1643017;86;21399;-83
2022/08/16 10:48:35;;;;;;;8.05;7.08;;;;;;;25.86;62.27;95976.30;1652456;86;21407;-83
2022/08/16 10:51:01;;;;;;;7.65;6.47;;;;;;;25.89;61.26;95977.62;1663382;86;20979;-83
2022/08/16 10:53:29;;;;;;;8.90;7.15;;;;;;;25.97;61.93;95983.06;1663687;85;21454;-83
2022/08/16 10:55:54;;;;;;;8.43;7.62;;;;;;;26.06;62.58;95981.88;1647449;85;21048;-83
2022/08/16 10:58:20;;;;;;;7.10;6.50;;;;;;;26.13;63.66;95984.16;1639308;86;21048;-83
2022/08/16 11:00:48;;;;;;;8.18;6.30;;;;;;;26.18;64.17;95981.41;1650265;85;22211;-83
2022/08/16 11:03:14;;;;;;;7.53;6.83;;;;;;;26.22;62.75;95975.78;1658103;85;20945;-83
2022/08/16 11:05:42;;;;;;;8.85;8.05;;;;;;;26.25;63.56;95973.86;1664545;85;20965;-83
2022/08/16 11:08:10;;;;;;;8.63;7.72;;;;;;;26.29;62.22;95968.98;1666451;85;21374;-83
2022/08/16 11:10:38;;;;;;;7.70;7.00;;;;;;;26.37;64.17;95964.91;1658747;85;21151;-83
2022/08/16 11:13:05;;;;;;;7.50;6.80;;;;;;;26.40;64.17;95964.32;1649380;85;21052;-84
2022/08/16 11:15:32;;;;;;;7.92;7.12;;;;;;;26.42;63.85;95968.81;1660916;85;21423;-83
2022/08/16 11:17:59;;;;;;;7.58;6.85;;;;;;;26.46;61.00;95969.02;1660514;85;21011;-83
2022/08/16 11:20:27;;;;;;;8.58;7.08;;;;;;;26.48;60.16;95962.30;1659923;85;20986;-83
2022/08/16 11:22:53;;;;;;;7.72;7.00;;;;;;;26.53;60.29;95962.23;1667888;84;21410;-84
2022/08/16 11:25:22;;;;;;;7.70;6.85;;;;;;;26.59;61.61;95962.92;1668597;84;21013;-83
2022/08/16 11:27:49;;;;;;;7.42;6.60;;;;;;;26.62;61.65;95968.45;1675588;84;21068;-83
2022/08/16 11:30:16;;;;;;;8.58;6.65;;;;;;;26.67;61.77;95971.56;1678406;84;20997;-83
2022/08/16 11:32:45;;;;;;;7.28;6.58;;;;;;;26.73;60.96;95974.41;1682518;83;20991;-83
2022/08/16 11:35:15;;;;;;;7.55;6.80;;;;;;;26.80;61.63;95972.67;1706490;83;20970;-83